sensor_id;sensor_type;location;lat;lon;timestamp;P1;durP1;ratioP1;P2;durP2;ratioP2
21825;SDS011;11075;47.944;11.776;2023-09-12T00:00:45;11.38;;;9.70;;
21825;SDS011;11075;47.944;11.776;2023-09-12T00:03:12;13.13;;;9.65;;
21825;SDS011;11075;47.944;11.776;2023-09-12T00:05:39;11.77;;;9.38;;
21825;SDS011;11075;47.944;11.776;2023-09-12T00:08:06;14.27;;;10.00;;
21825;SDS011;11075;47.944;11.776;2023-09-12T00:10:33;10.25;;;9.23;;
21825;SDS011;11075;47.944;11.776;2023-09-12T00:13:00;12.57;;;9.55;;
21825;SDS011;11075;47.944;11.776;2023-09-12T00:15:28;12.35;;;9.30;;
21825;SDS011;11075;47.944;11.776;2023-09-12T00:17:55;12.07;;;9.70;;
21825;SDS011;11075;47.944;11.776;2023-09-12T00:20:23;11.13;;;9.70;;
21825;SDS011;11075;47.944;11.776;2023-09-12T00:22:50;14.40;;;10.20;;
21825;SDS011;11075;47.944;11.776;2023-09-12T00:25:17;12.32;;;10.38;;
21825;SDS011;11075;47.944;11.776;2023-09-12T00:27:44;11.23;;;9.80;;
21825;SDS011;11075;47.944;11.776;2023-09-12T00:30:11;13.98;;;10.27;;
21825;SDS011;11075;47.944;11.776;2023-09-12T00:32:38;9.82;;;8.82;;
21825;SDS011;11075;47.944;11.776;2023-09-12T00:35:05;10.93;;;9.77;;
21825;SDS011;11075;47.944;11.776;2023-09-12T00:37:32;12.85;;;10.20;;
21825;SDS011;11075;47.944;11.776;2023-09-12T00:39:59;13.80;;;10.25;;
21825;SDS011;11075;47.944;11.776;2023-09-12T00:42:26;11.05;;;9.85;;
21825;SDS011;11075;47.944;11.776;2023-09-12T00:44:53;12.57;;;10.00;;
21825;SDS011;11075;47.944;11.776;2023-09-12T00:47:20;11.18;;;9.75;;
21825;SDS011;11075;47.944;11.776;2023-09-12T00:49:49;17.25;;;10.07;;
21825;SDS011;11075;47.944;11.776;2023-09-12T00:52:22;13.25;;;10.60;;
21825;SDS011;11075;47.944;11.776;2023-09-12T00:54:51;12.90;;;10.82;;
21825;SDS011;11075;47.944;11.776;2023-09-12T00:57:19;11.77;;;9.88;;
21825;SDS011;11075;47.944;11.776;2023-09-12T00:59:48;12.73;;;9.82;;
21825;SDS011;11075;47.944;11.776;2023-09-12T01:02:15;13.18;;;10.20;;
21825;SDS011;11075;47.944;11.776;2023-09-12T01:04:43;15.00;;;11.57;;
21825;SDS011;11075;47.944;11.776;2023-09-12T01:07:10;13.50;;;10.13;;
21825;SDS011;11075;47.944;11.776;2023-09-12T01:09:37;12.10;;;9.50;;
21825;SDS011;11075;47.944;11.776;2023-09-12T01:12:04;15.48;;;10.10;;
21825;SDS011;11075;47.944;11.776;2023-09-12T01:14:31;14.18;;;10.57;;
21825;SDS011;11075;47.944;11.776;2023-09-12T01:16:58;14.43;;;10.32;;
21825;SDS011;11075;47.944;11.776;2023-09-12T01:19:28;13.93;;;10.70;;
21825;SDS011;11075;47.944;11.776;2023-09-12T01:27:21;12.75;;;10.20;;
21825;SDS011;11075;47.944;11.776;2023-09-12T01:29:53;13.00;;;10.75;;
21825;SDS011;11075;47.944;11.776;2023-09-12T01:32:27;14.25;;;9.80;;
21825;SDS011;11075;47.944;11.776;2023-09-12T01:34:56;15.50;;;10.18;;
21825;SDS011;11075;47.944;11.776;2023-09-12T01:37:23;15.52;;;10.98;;
21825;SDS011;11075;47.944;11.776;2023-09-12T01:39:50;11.82;;;10.52;;
21825;SDS011;11075;47.944;11.776;2023-09-12T01:42:18;13.35;;;10.32;;
21825;SDS011;11075;47.944;11.776;2023-09-12T01:44:47;12.05;;;9.57;;
21825;SDS011;11075;47.944;11.776;2023-09-12T01:47:18;13.20;;;10.20;;
21825;SDS011;11075;47.944;11.776;2023-09-12T01:49:48;13.80;;;9.98;;
21825;SDS011;11075;47.944;11.776;2023-09-12T01:52:18;11.38;;;9.90;;
21825;SDS011;11075;47.944;11.776;2023-09-12T01:54:46;14.15;;;9.85;;
21825;SDS011;11075;47.944;11.776;2023-09-12T01:57:15;11.30;;;9.93;;
21825;SDS011;11075;47.944;11.776;2023-09-12T01:59:42;12.55;;;9.90;;
21825;SDS011;11075;47.944;11.776;2023-09-12T02:02:10;11.30;;;10.07;;
21825;SDS011;11075;47.944;11.776;2023-09-12T02:04:36;14.98;;;9.93;;
21825;SDS011;11075;47.944;11.776;2023-09-12T02:07:03;12.48;;;9.88;;
21825;SDS011;11075;47.944;11.776;2023-09-12T02:09:30;16.92;;;10.60;;
21825;SDS011;11075;47.944;11.776;2023-09-12T02:11:57;15.48;;;10.40;;
21825;SDS011;11075;47.944;11.776;2023-09-12T02:14:24;14.05;;;10.68;;
21825;SDS011;11075;47.944;11.776;2023-09-12T02:16:51;12.98;;;10.65;;
21825;SDS011;11075;47.944;11.776;2023-09-12T02:19:19;12.55;;;10.20;;
21825;SDS011;11075;47.944;11.776;2023-09-12T02:21:46;13.80;;;10.43;;
21825;SDS011;11075;47.944;11.776;2023-09-12T02:24:13;11.43;;;9.00;;
21825;SDS011;11075;47.944;11.776;2023-09-12T02:26:40;13.13;;;8.85;;
21825;SDS011;11075;47.944;11.776;2023-09-12T02:29:06;12.40;;;8.75;;
21825;SDS011;11075;47.944;11.776;2023-09-12T02:31:34;12.07;;;9.55;;
21825;SDS011;11075;47.944;11.776;2023-09-12T02:34:00;11.70;;;9.40;;
21825;SDS011;11075;47.944;11.776;2023-09-12T02:36:28;13.10;;;9.77;;
21825;SDS011;11075;47.944;11.776;2023-09-12T02:38:55;13.27;;;10.98;;
21825;SDS011;11075;47.944;11.776;2023-09-12T02:41:21;12.90;;;10.68;;
21825;SDS011;11075;47.944;11.776;2023-09-12T02:43:48;15.45;;;10.40;;
21825;SDS011;11075;47.944;11.776;2023-09-12T02:46:15;16.58;;;10.18;;
21825;SDS011;11075;47.944;11.776;2023-09-12T02:48:42;13.02;;;10.05;;
21825;SDS011;11075;47.944;11.776;2023-09-12T02:51:09;13.23;;;10.30;;
21825;SDS011;11075;47.944;11.776;2023-09-12T02:53:36;10.80;;;9.40;;
21825;SDS011;11075;47.944;11.776;2023-09-12T02:56:03;13.68;;;9.50;;
21825;SDS011;11075;47.944;11.776;2023-09-12T02:58:30;11.98;;;9.43;;
21825;SDS011;11075;47.944;11.776;2023-09-12T03:00:57;11.98;;;10.00;;
21825;SDS011;11075;47.944;11.776;2023-09-12T03:03:24;12.48;;;9.52;;
21825;SDS011;11075;47.944;11.776;2023-09-12T03:06:00;14.05;;;9.20;;
21825;SDS011;11075;47.944;11.776;2023-09-12T03:08:30;10.93;;;9.82;;
21825;SDS011;11075;47.944;11.776;2023-09-12T03:10:57;13.07;;;9.27;;
21825;SDS011;11075;47.944;11.776;2023-09-12T03:13:24;12.25;;;9.57;;
21825;SDS011;11075;47.944;11.776;2023-09-12T03:15:52;11.57;;;9.82;;
21825;SDS011;11075;47.944;11.776;2023-09-12T03:18:19;13.65;;;9.30;;
21825;SDS011;11075;47.944;11.776;2023-09-12T03:20:46;14.60;;;9.75;;
21825;SDS011;11075;47.944;11.776;2023-09-12T03:23:13;15.07;;;9.85;;
21825;SDS011;11075;47.944;11.776;2023-09-12T03:25:40;15.20;;;10.05;;
21825;SDS011;11075;47.944;11.776;2023-09-12T03:28:07;15.02;;;10.10;;
21825;SDS011;11075;47.944;11.776;2023-09-12T03:30:35;11.00;;;9.48;;
21825;SDS011;11075;47.944;11.776;2023-09-12T03:33:04;11.85;;;9.95;;
21825;SDS011;11075;47.944;11.776;2023-09-12T03:35:33;12.30;;;9.30;;
21825;SDS011;11075;47.944;11.776;2023-09-12T03:38:01;12.70;;;8.98;;
21825;SDS011;11075;47.944;11.776;2023-09-12T03:40:28;10.90;;;9.27;;
21825;SDS011;11075;47.944;11.776;2023-09-12T03:42:57;11.90;;;9.27;;
21825;SDS011;11075;47.944;11.776;2023-09-12T03:45:24;12.20;;;9.50;;
21825;SDS011;11075;47.944;11.776;2023-09-12T03:47:51;11.43;;;9.00;;
21825;SDS011;11075;47.944;11.776;2023-09-12T03:50:18;12.13;;;9.73;;
21825;SDS011;11075;47.944;11.776;2023-09-12T03:52:45;10.73;;;9.38;;
21825;SDS011;11075;47.944;11.776;2023-09-12T03:55:12;12.88;;;9.35;;
21825;SDS011;11075;47.944;11.776;2023-09-12T03:57:39;12.40;;;9.57;;
21825;SDS011;11075;47.944;11.776;2023-09-12T04:00:06;12.80;;;9.38;;
21825;SDS011;11075;47.944;11.776;2023-09-12T04:02:44;12.13;;;10.07;;
21825;SDS011;11075;47.944;11.776;2023-09-12T04:05:11;13.15;;;10.18;;
21825;SDS011;11075;47.944;11.776;2023-09-12T04:07:37;12.80;;;9.68;;
21825;SDS011;11075;47.944;11.776;2023-09-12T04:10:04;14.00;;;10.48;;
21825;SDS011;11075;47.944;11.776;2023-09-12T04:12:32;14.93;;;9.80;;
21825;SDS011;11075;47.944;11.776;2023-09-12T04:14:58;12.38;;;9.63;;
21825;SDS011;11075;47.944;11.776;2023-09-12T04:17:25;13.70;;;9.65;;
21825;SDS011;11075;47.944;11.776;2023-09-12T04:19:52;12.98;;;9.65;;
21825;SDS011;11075;47.944;11.776;2023-09-12T04:22:19;11.27;;;8.93;;
21825;SDS011;11075;47.944;11.776;2023-09-12T04:24:49;11.55;;;9.27;;
21825;SDS011;11075;47.944;11.776;2023-09-12T04:27:16;15.73;;;9.32;;
21825;SDS011;11075;47.944;11.776;2023-09-12T04:29:43;11.45;;;9.88;;
21825;SDS011;11075;47.944;11.776;2023-09-12T04:32:10;10.98;;;9.32;;
21825;SDS011;11075;47.944;11.776;2023-09-12T04:34:37;11.80;;;9.55;;
21825;SDS011;11075;47.944;11.776;2023-09-12T04:37:04;16.27;;;9.95;;
21825;SDS011;11075;47.944;11.776;2023-09-12T04:39:33;10.85;;;8.88;;
21825;SDS011;11075;47.944;11.776;2023-09-12T04:42:00;14.43;;;10.40;;
21825;SDS011;11075;47.944;11.776;2023-09-12T04:44:27;16.08;;;9.75;;
21825;SDS011;11075;47.944;11.776;2023-09-12T04:46:54;11.35;;;9.20;;
21825;SDS011;11075;47.944;11.776;2023-09-12T04:49:21;15.48;;;9.73;;
21825;SDS011;11075;47.944;11.776;2023-09-12T04:51:47;12.60;;;9.52;;
21825;SDS011;11075;47.944;11.776;2023-09-12T04:54:14;13.15;;;9.70;;
21825;SDS011;11075;47.944;11.776;2023-09-12T04:56:41;12.52;;;10.05;;
21825;SDS011;11075;47.944;11.776;2023-09-12T04:59:08;11.68;;;9.93;;
21825;SDS011;11075;47.944;11.776;2023-09-12T05:01:35;13.82;;;10.15;;
21825;SDS011;11075;47.944;11.776;2023-09-12T05:04:03;13.85;;;9.43;;
21825;SDS011;11075;47.944;11.776;2023-09-12T05:06:30;11.52;;;8.88;;
21825;SDS011;11075;47.944;11.776;2023-09-12T05:08:57;15.60;;;9.15;;
21825;SDS011;11075;47.944;11.776;2023-09-12T05:11:24;11.40;;;9.30;;
21825;SDS011;11075;47.944;11.776;2023-09-12T05:13:51;10.35;;;9.05;;
21825;SDS011;11075;47.944;11.776;2023-09-12T05:16:19;11.90;;;9.23;;
21825;SDS011;11075;47.944;11.776;2023-09-12T05:18:46;11.38;;;8.57;;
21825;SDS011;11075;47.944;11.776;2023-09-12T05:21:15;10.27;;;8.82;;
21825;SDS011;11075;47.944;11.776;2023-09-12T05:23:42;12.15;;;9.13;;
21825;SDS011;11075;47.944;11.776;2023-09-12T05:26:09;11.77;;;9.13;;
21825;SDS011;11075;47.944;11.776;2023-09-12T05:28:36;11.82;;;9.18;;
21825;SDS011;11075;47.944;11.776;2023-09-12T05:31:03;11.25;;;8.27;;
21825;SDS011;11075;47.944;11.776;2023-09-12T05:33:31;11.10;;;8.25;;
21825;SDS011;11075;47.944;11.776;2023-09-12T05:36:00;10.63;;;8.98;;
21825;SDS011;11075;47.944;11.776;2023-09-12T05:38:27;13.30;;;9.68;;
21825;SDS011;11075;47.944;11.776;2023-09-12T05:40:54;14.25;;;9.80;;
21825;SDS011;11075;47.944;11.776;2023-09-12T05:43:22;25.00;;;9.55;;
21825;SDS011;11075;47.944;11.776;2023-09-12T05:45:49;8.55;;;7.65;;
21825;SDS011;11075;47.944;11.776;2023-09-12T05:48:16;12.10;;;9.20;;
21825;SDS011;11075;47.944;11.776;2023-09-12T05:50:42;10.05;;;8.95;;
21825;SDS011;11075;47.944;11.776;2023-09-12T05:53:11;9.73;;;8.68;;
21825;SDS011;11075;47.944;11.776;2023-09-12T05:55:37;9.70;;;7.93;;
21825;SDS011;11075;47.944;11.776;2023-09-12T05:58:04;11.25;;;8.25;;
21825;SDS011;11075;47.944;11.776;2023-09-12T06:00:34;11.63;;;7.97;;
21825;SDS011;11075;47.944;11.776;2023-09-12T06:03:01;10.68;;;8.90;;
21825;SDS011;11075;47.944;11.776;2023-09-12T06:05:28;10.40;;;8.55;;
21825;SDS011;11075;47.944;11.776;2023-09-12T06:07:54;9.23;;;8.32;;
21825;SDS011;11075;47.944;11.776;2023-09-12T06:10:21;8.95;;;8.05;;
21825;SDS011;11075;47.944;11.776;2023-09-12T06:12:49;8.73;;;7.43;;
21825;SDS011;11075;47.944;11.776;2023-09-12T06:15:16;11.32;;;8.85;;
21825;SDS011;11075;47.944;11.776;2023-09-12T06:17:43;9.00;;;8.10;;
21825;SDS011;11075;47.944;11.776;2023-09-12T06:20:10;8.43;;;7.53;;
21825;SDS011;11075;47.944;11.776;2023-09-12T06:22:37;10.45;;;8.25;;
21825;SDS011;11075;47.944;11.776;2023-09-12T06:25:04;10.88;;;7.60;;
21825;SDS011;11075;47.944;11.776;2023-09-12T06:27:32;10.77;;;8.07;;
21825;SDS011;11075;47.944;11.776;2023-09-12T06:29:59;9.15;;;8.25;;
21825;SDS011;11075;47.944;11.776;2023-09-12T06:32:26;10.70;;;7.43;;
21825;SDS011;11075;47.944;11.776;2023-09-12T06:34:53;8.65;;;7.75;;
21825;SDS011;11075;47.944;11.776;2023-09-12T06:37:19;8.70;;;7.55;;
21825;SDS011;11075;47.944;11.776;2023-09-12T06:39:49;12.93;;;7.93;;
21825;SDS011;11075;47.944;11.776;2023-09-12T06:42:17;9.98;;;7.55;;
21825;SDS011;11075;47.944;11.776;2023-09-12T06:44:44;8.65;;;7.22;;
21825;SDS011;11075;47.944;11.776;2023-09-12T06:47:11;14.23;;;8.18;;
21825;SDS011;11075;47.944;11.776;2023-09-12T06:49:39;12.85;;;8.02;;
21825;SDS011;11075;47.944;11.776;2023-09-12T06:52:05;9.82;;;7.20;;
21825;SDS011;11075;47.944;11.776;2023-09-12T06:54:33;10.65;;;7.15;;
21825;SDS011;11075;47.944;11.776;2023-09-12T06:57:00;8.98;;;7.32;;
21825;SDS011;11075;47.944;11.776;2023-09-12T06:59:27;8.32;;;7.28;;
21825;SDS011;11075;47.944;11.776;2023-09-12T07:01:56;9.00;;;7.20;;
21825;SDS011;11075;47.944;11.776;2023-09-12T07:04:23;10.13;;;6.75;;
21825;SDS011;11075;47.944;11.776;2023-09-12T07:06:50;7.38;;;6.50;;
21825;SDS011;11075;47.944;11.776;2023-09-12T07:09:17;8.48;;;6.90;;
21825;SDS011;11075;47.944;11.776;2023-09-12T07:11:45;8.55;;;7.45;;
21825;SDS011;11075;47.944;11.776;2023-09-12T07:14:13;8.80;;;7.10;;
21825;SDS011;11075;47.944;11.776;2023-09-12T07:16:40;10.85;;;7.75;;
21825;SDS011;11075;47.944;11.776;2023-09-12T07:19:07;9.60;;;7.45;;
21825;SDS011;11075;47.944;11.776;2023-09-12T07:21:34;11.05;;;7.20;;
21825;SDS011;11075;47.944;11.776;2023-09-12T07:24:01;7.68;;;6.90;;
21825;SDS011;11075;47.944;11.776;2023-09-12T07:26:27;9.50;;;7.32;;
21825;SDS011;11075;47.944;11.776;2023-09-12T07:28:54;8.35;;;6.78;;
21825;SDS011;11075;47.944;11.776;2023-09-12T07:31:21;7.28;;;6.57;;
21825;SDS011;11075;47.944;11.776;2023-09-12T07:33:48;7.13;;;6.40;;
21825;SDS011;11075;47.944;11.776;2023-09-12T07:36:15;11.23;;;6.60;;
21825;SDS011;11075;47.944;11.776;2023-09-12T07:38:42;10.85;;;7.28;;
21825;SDS011;11075;47.944;11.776;2023-09-12T07:41:11;9.93;;;6.93;;
21825;SDS011;11075;47.944;11.776;2023-09-12T07:43:38;10.07;;;7.00;;
21825;SDS011;11075;47.944;11.776;2023-09-12T07:46:07;8.73;;;6.82;;
21825;SDS011;11075;47.944;11.776;2023-09-12T07:48:34;9.88;;;7.28;;
21825;SDS011;11075;47.944;11.776;2023-09-12T07:51:01;10.90;;;6.90;;
21825;SDS011;11075;47.944;11.776;2023-09-12T07:53:27;10.68;;;7.47;;
21825;SDS011;11075;47.944;11.776;2023-09-12T07:55:58;8.57;;;6.82;;
21825;SDS011;11075;47.944;11.776;2023-09-12T07:58:26;9.38;;;8.27;;
21825;SDS011;11075;47.944;11.776;2023-09-12T08:00:52;11.23;;;8.27;;
21825;SDS011;11075;47.944;11.776;2023-09-12T08:03:19;8.77;;;7.25;;
21825;SDS011;11075;47.944;11.776;2023-09-12T08:05:56;8.50;;;7.60;;
21825;SDS011;11075;47.944;11.776;2023-09-12T08:08:24;10.60;;;8.23;;
21825;SDS011;11075;47.944;11.776;2023-09-12T08:10:50;10.60;;;7.68;;
21825;SDS011;11075;47.944;11.776;2023-09-12T08:13:17;8.10;;;7.40;;
21825;SDS011;11075;47.944;11.776;2023-09-12T08:15:44;8.45;;;7.50;;
21825;SDS011;11075;47.944;11.776;2023-09-12T08:18:11;11.25;;;7.97;;
21825;SDS011;11075;47.944;11.776;2023-09-12T08:20:38;10.93;;;8.40;;
21825;SDS011;11075;47.944;11.776;2023-09-12T08:23:05;8.65;;;7.43;;
21825;SDS011;11075;47.944;11.776;2023-09-12T08:25:32;13.45;;;8.50;;
21825;SDS011;11075;47.944;11.776;2023-09-12T08:27:59;13.25;;;7.53;;
21825;SDS011;11075;47.944;11.776;2023-09-12T08:30:26;10.32;;;8.13;;
21825;SDS011;11075;47.944;11.776;2023-09-12T08:32:56;10.63;;;7.57;;
21825;SDS011;11075;47.944;11.776;2023-09-12T08:35:23;11.25;;;8.50;;
21825;SDS011;11075;47.944;11.776;2023-09-12T08:37:49;16.27;;;7.80;;
21825;SDS011;11075;47.944;11.776;2023-09-12T08:40:16;9.10;;;8.18;;
21825;SDS011;11075;47.944;11.776;2023-09-12T08:42:44;11.30;;;7.93;;
21825;SDS011;11075;47.944;11.776;2023-09-12T08:45:12;12.32;;;8.07;;
21825;SDS011;11075;47.944;11.776;2023-09-12T08:47:42;9.40;;;7.05;;
21825;SDS011;11075;47.944;11.776;2023-09-12T08:50:12;8.07;;;7.22;;
21825;SDS011;11075;47.944;11.776;2023-09-12T08:52:42;11.93;;;8.60;;
21825;SDS011;11075;47.944;11.776;2023-09-12T08:55:29;8.52;;;7.38;;
21825;SDS011;11075;47.944;11.776;2023-09-12T08:58:00;9.00;;;7.55;;
21825;SDS011;11075;47.944;11.776;2023-09-12T09:00:29;8.18;;;7.30;;
21825;SDS011;11075;47.944;11.776;2023-09-12T09:02:57;7.93;;;7.13;;
21825;SDS011;11075;47.944;11.776;2023-09-12T09:05:25;9.45;;;6.95;;
21825;SDS011;11075;47.944;11.776;2023-09-12T09:07:54;6.82;;;6.20;;
21825;SDS011;11075;47.944;11.776;2023-09-12T09:10:22;7.88;;;6.72;;
21825;SDS011;11075;47.944;11.776;2023-09-12T09:13:08;7.95;;;7.00;;
21825;SDS011;11075;47.944;11.776;2023-09-12T09:15:37;9.70;;;7.03;;
21825;SDS011;11075;47.944;11.776;2023-09-12T09:18:09;7.72;;;6.63;;
21825;SDS011;11075;47.944;11.776;2023-09-12T09:20:37;9.55;;;6.88;;
21825;SDS011;11075;47.944;11.776;2023-09-12T09:23:06;7.75;;;6.95;;
21825;SDS011;11075;47.944;11.776;2023-09-12T09:25:39;8.05;;;7.18;;
21825;SDS011;11075;47.944;11.776;2023-09-12T09:28:17;7.72;;;6.93;;
21825;SDS011;11075;47.944;11.776;2023-09-12T09:30:47;7.72;;;6.90;;
21825;SDS011;11075;47.944;11.776;2023-09-12T09:33:15;10.98;;;7.15;;
21825;SDS011;11075;47.944;11.776;2023-09-12T09:35:43;8.63;;;6.68;;
21825;SDS011;11075;47.944;11.776;2023-09-12T09:38:12;9.40;;;7.15;;
21825;SDS011;11075;47.944;11.776;2023-09-12T09:40:43;8.95;;;6.97;;
21825;SDS011;11075;47.944;11.776;2023-09-12T09:43:11;8.02;;;6.90;;
21825;SDS011;11075;47.944;11.776;2023-09-12T09:45:44;8.82;;;6.45;;
21825;SDS011;11075;47.944;11.776;2023-09-12T09:48:25;6.60;;;5.88;;
21825;SDS011;11075;47.944;11.776;2023-09-12T09:51:01;9.63;;;6.88;;
21825;SDS011;11075;47.944;11.776;2023-09-12T09:53:29;8.07;;;6.43;;
21825;SDS011;11075;47.944;11.776;2023-09-12T09:56:12;7.72;;;6.20;;
21825;SDS011;11075;47.944;11.776;2023-09-12T10:01:20;15.82;;;6.82;;
21825;SDS011;11075;47.944;11.776;2023-09-12T10:03:58;7.47;;;6.45;;
21825;SDS011;11075;47.944;11.776;2023-09-12T10:06:27;6.75;;;6.05;;
21825;SDS011;11075;47.944;11.776;2023-09-12T10:08:56;9.52;;;6.82;;
21825;SDS011;11075;47.944;11.776;2023-09-12T10:11:27;8.95;;;6.50;;
21825;SDS011;11075;47.944;11.776;2023-09-12T10:13:56;7.95;;;6.60;;
21825;SDS011;11075;47.944;11.776;2023-09-12T10:16:24;6.80;;;6.10;;
21825;SDS011;11075;47.944;11.776;2023-09-12T10:19:07;7.20;;;6.03;;
21825;SDS011;11075;47.944;11.776;2023-09-12T10:24:33;9.63;;;5.65;;
21825;SDS011;11075;47.944;11.776;2023-09-12T10:27:02;7.85;;;6.25;;
21825;SDS011;11075;47.944;11.776;2023-09-12T10:29:31;6.20;;;5.60;;
21825;SDS011;11075;47.944;11.776;2023-09-12T10:31:58;6.40;;;5.80;;
21825;SDS011;11075;47.944;11.776;2023-09-12T10:34:26;7.45;;;6.15;;
21825;SDS011;11075;47.944;11.776;2023-09-12T10:36:57;10.82;;;6.40;;
21825;SDS011;11075;47.944;11.776;2023-09-12T10:39:27;7.10;;;6.40;;
21825;SDS011;11075;47.944;11.776;2023-09-12T10:41:55;9.82;;;5.80;;
21825;SDS011;11075;47.944;11.776;2023-09-12T10:44:23;6.18;;;5.55;;
21825;SDS011;11075;47.944;11.776;2023-09-12T10:46:51;7.47;;;6.38;;
21825;SDS011;11075;47.944;11.776;2023-09-12T10:49:22;7.00;;;6.30;;
21825;SDS011;11075;47.944;11.776;2023-09-12T10:51:52;8.18;;;6.53;;
21825;SDS011;11075;47.944;11.776;2023-09-12T10:54:24;7.63;;;6.72;;
21825;SDS011;11075;47.944;11.776;2023-09-12T10:57:05;8.10;;;5.75;;
21825;SDS011;11075;47.944;11.776;2023-09-12T10:59:34;7.00;;;6.30;;
21825;SDS011;11075;47.944;11.776;2023-09-12T11:05:04;6.65;;;6.00;;
21825;SDS011;11075;47.944;11.776;2023-09-12T11:08:00;11.35;;;6.47;;
21825;SDS011;11075;47.944;11.776;2023-09-12T11:10:30;10.18;;;6.57;;
21825;SDS011;11075;47.944;11.776;2023-09-12T11:12:58;7.18;;;6.22;;
21825;SDS011;11075;47.944;11.776;2023-09-12T11:15:27;9.23;;;6.80;;
21825;SDS011;11075;47.944;11.776;2023-09-12T11:20:49;8.52;;;6.65;;
21825;SDS011;11075;47.944;11.776;2023-09-12T11:23:16;7.15;;;6.45;;
21825;SDS011;11075;47.944;11.776;2023-09-12T11:25:44;7.20;;;6.47;;
21825;SDS011;11075;47.944;11.776;2023-09-12T11:28:11;7.38;;;6.65;;
21825;SDS011;11075;47.944;11.776;2023-09-12T11:30:38;9.45;;;6.78;;
21825;SDS011;11075;47.944;11.776;2023-09-12T11:33:23;9.75;;;7.30;;
21825;SDS011;11075;47.944;11.776;2023-09-12T11:35:54;10.23;;;7.25;;
21825;SDS011;11075;47.944;11.776;2023-09-12T11:38:30;9.50;;;7.13;;
21825;SDS011;11075;47.944;11.776;2023-09-12T11:40:58;10.63;;;8.55;;
21825;SDS011;11075;47.944;11.776;2023-09-12T11:43:26;8.32;;;7.53;;
21825;SDS011;11075;47.944;11.776;2023-09-12T11:45:54;8.98;;;7.50;;
21825;SDS011;11075;47.944;11.776;2023-09-12T11:48:23;13.00;;;8.02;;
21825;SDS011;11075;47.944;11.776;2023-09-12T11:50:54;10.65;;;7.15;;
21825;SDS011;11075;47.944;11.776;2023-09-12T11:53:23;10.77;;;7.82;;
21825;SDS011;11075;47.944;11.776;2023-09-12T11:55:58;8.15;;;6.80;;
21825;SDS011;11075;47.944;11.776;2023-09-12T11:58:27;9.15;;;7.20;;
21825;SDS011;11075;47.944;11.776;2023-09-12T12:00:55;10.65;;;7.30;;
21825;SDS011;11075;47.944;11.776;2023-09-12T12:03:24;9.90;;;6.80;;
21825;SDS011;11075;47.944;11.776;2023-09-12T12:05:56;10.05;;;7.18;;
21825;SDS011;11075;47.944;11.776;2023-09-12T12:08:23;9.40;;;6.80;;
21825;SDS011;11075;47.944;11.776;2023-09-12T12:10:53;8.60;;;6.80;;
21825;SDS011;11075;47.944;11.776;2023-09-12T12:13:21;7.50;;;6.30;;
21825;SDS011;11075;47.944;11.776;2023-09-12T12:15:50;10.63;;;6.88;;
21825;SDS011;11075;47.944;11.776;2023-09-12T12:18:17;10.00;;;7.07;;
21825;SDS011;11075;47.944;11.776;2023-09-12T12:20:44;10.10;;;7.35;;
21825;SDS011;11075;47.944;11.776;2023-09-12T12:23:12;8.25;;;7.25;;
21825;SDS011;11075;47.944;11.776;2023-09-12T12:25:39;11.88;;;7.53;;
21825;SDS011;11075;47.944;11.776;2023-09-12T12:28:06;8.63;;;7.72;;
21825;SDS011;11075;47.944;11.776;2023-09-12T12:30:34;7.78;;;6.70;;
21825;SDS011;11075;47.944;11.776;2023-09-12T12:33:06;8.40;;;7.47;;
21825;SDS011;11075;47.944;11.776;2023-09-12T12:36:00;8.77;;;7.00;;
21825;SDS011;11075;47.944;11.776;2023-09-12T12:38:33;7.45;;;6.25;;
21825;SDS011;11075;47.944;11.776;2023-09-12T12:41:10;7.03;;;6.30;;
21825;SDS011;11075;47.944;11.776;2023-09-12T12:43:39;8.20;;;6.90;;
21825;SDS011;11075;47.944;11.776;2023-09-12T12:46:11;7.28;;;6.57;;
21825;SDS011;11075;47.944;11.776;2023-09-12T12:48:42;7.35;;;6.50;;
21825;SDS011;11075;47.944;11.776;2023-09-12T12:51:22;9.48;;;6.05;;
21825;SDS011;11075;47.944;11.776;2023-09-12T12:53:51;6.57;;;5.97;;
21825;SDS011;11075;47.944;11.776;2023-09-12T12:56:21;7.88;;;6.40;;
21825;SDS011;11075;47.944;11.776;2023-09-12T12:58:50;7.10;;;6.35;;
21825;SDS011;11075;47.944;11.776;2023-09-12T13:01:18;6.88;;;6.28;;
21825;SDS011;11075;47.944;11.776;2023-09-12T13:03:45;9.27;;;6.45;;
21825;SDS011;11075;47.944;11.776;2023-09-12T13:06:13;7.43;;;6.30;;
21825;SDS011;11075;47.944;11.776;2023-09-12T13:08:41;7.20;;;6.30;;
21825;SDS011;11075;47.944;11.776;2023-09-12T13:11:09;8.25;;;6.60;;
21825;SDS011;11075;47.944;11.776;2023-09-12T13:13:37;7.88;;;6.90;;
21825;SDS011;11075;47.944;11.776;2023-09-12T13:16:05;7.13;;;6.43;;
21825;SDS011;11075;47.944;11.776;2023-09-12T13:18:36;6.75;;;6.10;;
21825;SDS011;11075;47.944;11.776;2023-09-12T13:21:04;7.03;;;6.32;;
21825;SDS011;11075;47.944;11.776;2023-09-12T13:23:35;9.57;;;6.82;;
21825;SDS011;11075;47.944;11.776;2023-09-12T13:26:06;7.32;;;6.32;;
21825;SDS011;11075;47.944;11.776;2023-09-12T13:28:34;6.85;;;6.20;;
21825;SDS011;11075;47.944;11.776;2023-09-12T13:31:02;8.02;;;7.05;;
21825;SDS011;11075;47.944;11.776;2023-09-12T13:33:29;7.68;;;6.75;;
21825;SDS011;11075;47.944;11.776;2023-09-12T13:35:56;9.40;;;6.63;;
21825;SDS011;11075;47.944;11.776;2023-09-12T13:38:23;10.10;;;7.18;;
21825;SDS011;11075;47.944;11.776;2023-09-12T13:40:51;7.47;;;6.70;;
21825;SDS011;11075;47.944;11.776;2023-09-12T13:43:17;8.95;;;6.50;;
21825;SDS011;11075;47.944;11.776;2023-09-12T13:45:45;9.98;;;7.15;;
21825;SDS011;11075;47.944;11.776;2023-09-12T13:48:12;8.32;;;7.53;;
21825;SDS011;11075;47.944;11.776;2023-09-12T13:50:40;8.25;;;6.47;;
21825;SDS011;11075;47.944;11.776;2023-09-12T13:53:09;10.23;;;7.57;;
21825;SDS011;11075;47.944;11.776;2023-09-12T13:55:36;9.70;;;7.25;;
21825;SDS011;11075;47.944;11.776;2023-09-12T13:58:04;7.47;;;6.70;;
21825;SDS011;11075;47.944;11.776;2023-09-12T14:00:33;10.43;;;7.75;;
21825;SDS011;11075;47.944;11.776;2023-09-12T14:03:05;9.52;;;6.88;;
21825;SDS011;11075;47.944;11.776;2023-09-12T14:05:32;10.13;;;7.30;;
21825;SDS011;11075;47.944;11.776;2023-09-12T14:07:59;9.02;;;6.53;;
21825;SDS011;11075;47.944;11.776;2023-09-12T14:10:26;7.85;;;7.05;;
21825;SDS011;11075;47.944;11.776;2023-09-12T14:13:02;12.15;;;7.72;;
21825;SDS011;11075;47.944;11.776;2023-09-12T14:15:46;11.98;;;7.65;;
21825;SDS011;11075;47.944;11.776;2023-09-12T14:18:14;8.65;;;6.95;;
21825;SDS011;11075;47.944;11.776;2023-09-12T14:20:42;9.52;;;7.07;;
21825;SDS011;11075;47.944;11.776;2023-09-12T14:23:11;9.00;;;8.10;;
21825;SDS011;11075;47.944;11.776;2023-09-12T14:25:38;8.20;;;7.07;;
21825;SDS011;11075;47.944;11.776;2023-09-12T14:28:05;8.95;;;7.03;;
21825;SDS011;11075;47.944;11.776;2023-09-12T14:30:34;8.32;;;7.03;;
21825;SDS011;11075;47.944;11.776;2023-09-12T14:33:02;8.68;;;7.55;;
21825;SDS011;11075;47.944;11.776;2023-09-12T14:35:30;8.95;;;7.18;;
21825;SDS011;11075;47.944;11.776;2023-09-12T14:37:57;10.85;;;7.40;;
21825;SDS011;11075;47.944;11.776;2023-09-12T14:40:25;8.63;;;7.72;;
21825;SDS011;11075;47.944;11.776;2023-09-12T14:42:53;9.18;;;7.53;;
21825;SDS011;11075;47.944;11.776;2023-09-12T14:45:21;7.63;;;6.95;;
21825;SDS011;11075;47.944;11.776;2023-09-12T14:47:48;9.25;;;7.25;;
21825;SDS011;11075;47.944;11.776;2023-09-12T14:50:15;8.75;;;7.20;;